sensor_id;sensor_type;location;lat;lon;timestamp;pressure;altitude;pressure_sealevel;temperature;humidity
5872;BME280;2962;51.312;7.378;2022-12-18T00:01:46;98436.03;;;-4.71;100.00
5872;BME280;2962;51.312;7.378;2022-12-18T00:04:18;98434.88;;;-4.58;100.00
5872;BME280;2962;51.312;7.378;2022-12-18T00:06:44;98452.44;;;-4.57;100.00
5872;BME280;2962;51.312;7.378;2022-12-18T00:09:10;98455.59;;;-4.60;100.00
5872;BME280;2962;51.312;7.378;2022-12-18T00:11:35;98448.66;;;-4.61;100.00
5872;BME280;2962;51.312;7.378;2022-12-18T00:14:00;98450.69;;;-4.68;100.00
5872;BME280;2962;51.312;7.378;2022-12-18T00:16:27;98448.16;;;-4.58;100.00
5872;BME280;2962;51.312;7.378;2022-12-18T00:18:54;98456.88;;;-4.62;100.00
5872;BME280;2962;51.312;7.378;2022-12-18T00:21:21;98465.09;;;-4.64;100.00
5872;BME280;2962;51.312;7.378;2022-12-18T00:23:47;98476.28;;;-4.62;100.00
5872;BME280;2962;51.312;7.378;2022-12-18T00:26:17;98463.25;;;-4.63;100.00
5872;BME280;2962;51.312;7.378;2022-12-18T00:28:43;98466.47;;;-4.61;100.00
5872;BME280;2962;51.312;7.378;2022-12-18T00:31:15;98477.34;;;-4.63;100.00
5872;BME280;2962;51.312;7.378;2022-12-18T00:33:41;98470.59;;;-4.71;100.00
5872;BME280;2962;51.312;7.378;2022-12-18T00:38:39;98463.41;;;-4.70;100.00
5872;BME280;2962;51.312;7.378;2022-12-18T00:41:05;98467.78;;;-4.64;100.00
5872;BME280;2962;51.312;7.378;2022-12-18T00:43:31;98462.63;;;-4.71;100.00
5872;BME280;2962;51.312;7.378;2022-12-18T00:45:56;98461.19;;;-4.78;100.00
5872;BME280;2962;51.312;7.378;2022-12-18T00:48:22;98470.75;;;-4.77;100.00
5872;BME280;2962;51.312;7.378;2022-12-18T00:50:48;98463.56;;;-4.77;100.00
5872;BME280;2962;51.312;7.378;2022-12-18T00:53:14;98448.38;;;-4.81;100.00
5872;BME280;2962;51.312;7.378;2022-12-18T00:55:40;98452.78;;;-4.70;100.00
5872;BME280;2962;51.312;7.378;2022-12-18T00:58:06;98466.66;;;-4.68;100.00
5872;BME280;2962;51.312;7.378;2022-12-18T01:00:31;98446.59;;;-4.76;100.00
5872;BME280;2962;51.312;7.378;2022-12-18T01:02:56;98453.47;;;-4.80;100.00
5872;BME280;2962;51.312;7.378;2022-12-18T01:05:22;98459.41;;;-4.73;100.00
5872;BME280;2962;51.312;7.378;2022-12-18T01:07:47;98457.34;;;-4.66;100.00
5872;BME280;2962;51.312;7.378;2022-12-18T01:10:13;98445.06;;;-4.72;100.00
5872;BME280;2962;51.312;7.378;2022-12-18T01:12:38;98449.50;;;-4.77;100.00
5872;BME280;2962;51.312;7.378;2022-12-18T01:15:05;98444.75;;;-4.75;100.00
5872;BME280;2962;51.312;7.378;2022-12-18T01:17:31;98458.91;;;-4.70;100.00
5872;BME280;2962;51.312;7.378;2022-12-18T01:19:56;98456.75;;;-4.73;100.00
5872;BME280;2962;51.312;7.378;2022-12-18T01:22:21;98442.63;;;-4.56;100.00
5872;BME280;2962;51.312;7.378;2022-12-18T01:24:46;98448.91;;;-4.62;100.00
5872;BME280;2962;51.312;7.378;2022-12-18T01:27:12;98453.47;;;-4.58;100.00
5872;BME280;2962;51.312;7.378;2022-12-18T01:29:37;98456.97;;;-4.57;100.00
5872;BME280;2962;51.312;7.378;2022-12-18T01:32:02;98440.69;;;-4.61;100.00
5872;BME280;2962;51.312;7.378;2022-12-18T01:34:28;98461.78;;;-4.54;100.00
5872;BME280;2962;51.312;7.378;2022-12-18T01:36:53;98470.50;;;-4.59;100.00
5872;BME280;2962;51.312;7.378;2022-12-18T01:39:18;98459.69;;;-4.52;100.00
5872;BME280;2962;51.312;7.378;2022-12-18T01:41:45;98455.28;;;-4.63;100.00
5872;BME280;2962;51.312;7.378;2022-12-18T01:44:53;98475.00;;;-4.59;100.00
5872;BME280;2962;51.312;7.378;2022-12-18T01:47:23;98470.97;;;-4.62;100.00
5872;BME280;2962;51.312;7.378;2022-12-18T01:49:50;98463.50;;;-4.65;100.00
5872;BME280;2962;51.312;7.378;2022-12-18T01:52:16;98460.34;;;-4.62;100.00
5872;BME280;2962;51.312;7.378;2022-12-18T01:54:43;98458.25;;;-4.60;100.00
5872;BME280;2962;51.312;7.378;2022-12-18T01:57:08;98466.44;;;-4.45;100.00
5872;BME280;2962;51.312;7.378;2022-12-18T01:59:35;98469.69;;;-4.59;100.00
5872;BME280;2962;51.312;7.378;2022-12-18T02:02:02;98461.72;;;-4.59;100.00
5872;BME280;2962;51.312;7.378;2022-12-18T02:04:27;98465.75;;;-4.57;100.00
5872;BME280;2962;51.312;7.378;2022-12-18T02:07:08;98436.19;;;-4.60;100.00
5872;BME280;2962;51.312;7.378;2022-12-18T02:09:43;98459.38;;;-4.56;100.00
5872;BME280;2962;51.312;7.378;2022-12-18T02:12:23;98452.31;;;-4.67;100.00
5872;BME280;2962;51.312;7.378;2022-12-18T02:14:56;98460.28;;;-4.67;100.00
5872;BME280;2962;51.312;7.378;2022-12-18T02:17:37;98447.78;;;-4.67;100.00
5872;BME280;2962;51.312;7.378;2022-12-18T02:20:20;98471.06;;;-4.57;100.00
5872;BME280;2962;51.312;7.378;2022-12-18T02:22:57;98477.09;;;-4.61;100.00
5872;BME280;2962;51.312;7.378;2022-12-18T02:25:40;98475.25;;;-4.61;100.00
5872;BME280;2962;51.312;7.378;2022-12-18T02:28:08;98460.91;;;-4.60;100.00
5872;BME280;2962;51.312;7.378;2022-12-18T02:30:36;98456.56;;;-4.66;100.00
5872;BME280;2962;51.312;7.378;2022-12-18T02:33:04;98452.63;;;-4.63;100.00
5872;BME280;2962;51.312;7.378;2022-12-18T02:35:32;98460.91;;;-4.60;100.00
5872;BME280;2962;51.312;7.378;2022-12-18T02:37:58;98444.91;;;-4.65;100.00
5872;BME280;2962;51.312;7.378;2022-12-18T02:40:26;98431.78;;;-4.72;100.00
5872;BME280;2962;51.312;7.378;2022-12-18T02:42:52;98444.38;;;-4.62;100.00
5872;BME280;2962;51.312;7.378;2022-12-18T02:45:18;98413.97;;;-4.71;100.00
5872;BME280;2962;51.312;7.378;2022-12-18T02:47:47;98428.25;;;-4.55;100.00
5872;BME280;2962;51.312;7.378;2022-12-18T02:50:26;98436.56;;;-4.52;100.00
5872;BME280;2962;51.312;7.378;2022-12-18T02:53:04;98447.94;;;-4.56;100.00
5872;BME280;2962;51.312;7.378;2022-12-18T02:56:03;98449.09;;;-4.47;100.00
5872;BME280;2962;51.312;7.378;2022-12-18T03:01:16;98433.63;;;-4.50;100.00
5872;BME280;2962;51.312;7.378;2022-12-18T03:03:47;98427.03;;;-4.48;100.00
5872;BME280;2962;51.312;7.378;2022-12-18T03:06:33;98427.72;;;-4.35;100.00
5872;BME280;2962;51.312;7.378;2022-12-18T03:09:06;98423.13;;;-4.40;100.00
5872;BME280;2962;51.312;7.378;2022-12-18T03:11:34;98429.44;;;-4.24;100.00
5872;BME280;2962;51.312;7.378;2022-12-18T03:14:22;98432.50;;;-4.37;100.00
5872;BME280;2962;51.312;7.378;2022-12-18T03:16:51;98424.19;;;-4.41;100.00
5872;BME280;2962;51.312;7.378;2022-12-18T03:19:21;98432.91;;;-4.46;100.00
5872;BME280;2962;51.312;7.378;2022-12-18T03:21:50;98430.75;;;-4.49;100.00
5872;BME280;2962;51.312;7.378;2022-12-18T03:24:18;98429.63;;;-4.53;100.00
5872;BME280;2962;51.312;7.378;2022-12-18T03:26:47;98418.75;;;-4.51;100.00
5872;BME280;2962;51.312;7.378;2022-12-18T03:29:19;98437.34;;;-4.51;100.00
5872;BME280;2962;51.312;7.378;2022-12-18T03:31:50;98423.50;;;-4.53;100.00
5872;BME280;2962;51.312;7.378;2022-12-18T03:34:21;98421.41;;;-4.51;100.00
5872;BME280;2962;51.312;7.378;2022-12-18T03:36:48;98402.13;;;-4.42;100.00
5872;BME280;2962;51.312;7.378;2022-12-18T03:39:14;98416.00;;;-4.34;100.00
5872;BME280;2962;51.312;7.378;2022-12-18T03:42:05;98407.97;;;-4.39;100.00
5872;BME280;2962;51.312;7.378;2022-12-18T03:44:50;98404.81;;;-4.36;100.00
5872;BME280;2962;51.312;7.378;2022-12-18T03:47:36;98406.56;;;-4.25;100.00
5872;BME280;2962;51.312;7.378;2022-12-18T03:53:00;98404.97;;;-4.26;100.00
5872;BME280;2962;51.312;7.378;2022-12-18T03:55:32;98391.78;;;-4.38;100.00
5872;BME280;2962;51.312;7.378;2022-12-18T03:57:59;98401.69;;;-4.33;100.00
5872;BME280;2962;51.312;7.378;2022-12-18T04:00:27;98398.00;;;-4.27;100.00
5872;BME280;2962;51.312;7.378;2022-12-18T04:02:55;98396.34;;;-4.33;100.00
5872;BME280;2962;51.312;7.378;2022-12-18T04:05:23;98400.13;;;-4.29;100.00
5872;BME280;2962;51.312;7.378;2022-12-18T04:07:50;98405.44;;;-4.29;100.00
5872;BME280;2962;51.312;7.378;2022-12-18T04:10:17;98401.19;;;-4.30;100.00
5872;BME280;2962;51.312;7.378;2022-12-18T04:12:42;98391.56;;;-4.31;100.00
5872;BME280;2962;51.312;7.378;2022-12-18T04:15:09;98392.91;;;-4.34;100.00
5872;BME280;2962;51.312;7.378;2022-12-18T04:17:35;98391.97;;;-4.45;100.00
5872;BME280;2962;51.312;7.378;2022-12-18T04:20:00;98384.97;;;-4.51;100.00
5872;BME280;2962;51.312;7.378;2022-12-18T04:22:25;98368.66;;;-4.59;100.00
5872;BME280;2962;51.312;7.378;2022-12-18T04:24:50;98403.84;;;-4.52;100.00
5872;BME280;2962;51.312;7.378;2022-12-18T04:27:16;98395.19;;;-4.64;100.00
5872;BME280;2962;51.312;7.378;2022-12-18T04:29:41;98388.63;;;-4.57;100.00
5872;BME280;2962;51.312;7.378;2022-12-18T04:32:07;98395.97;;;-4.64;100.00
5872;BME280;2962;51.312;7.378;2022-12-18T04:34:32;98407.72;;;-4.60;100.00
5872;BME280;2962;51.312;7.378;2022-12-18T04:36:57;98409.91;;;-4.57;100.00
5872;BME280;2962;51.312;7.378;2022-12-18T04:39:23;98402.09;;;-4.63;100.00
5872;BME280;2962;51.312;7.378;2022-12-18T04:41:48;98402.47;;;-4.55;100.00
5872;BME280;2962;51.312;7.378;2022-12-18T04:44:13;98376.13;;;-4.56;100.00
5872;BME280;2962;51.312;7.378;2022-12-18T04:46:38;98398.75;;;-4.54;100.00
5872;BME280;2962;51.312;7.378;2022-12-18T04:49:04;98401.13;;;-4.57;100.00
5872;BME280;2962;51.312;7.378;2022-12-18T04:51:29;98401.19;;;-4.52;100.00
5872;BME280;2962;51.312;7.378;2022-12-18T04:53:54;98380.13;;;-4.54;100.00
5872;BME280;2962;51.312;7.378;2022-12-18T04:56:20;98398.09;;;-4.44;100.00
5872;BME280;2962;51.312;7.378;2022-12-18T04:58:45;98394.75;;;-4.56;100.00
5872;BME280;2962;51.312;7.378;2022-12-18T05:01:12;98394.63;;;-4.45;100.00
5872;BME280;2962;51.312;7.378;2022-12-18T05:03:38;98382.63;;;-4.47;100.00
5872;BME280;2962;51.312;7.378;2022-12-18T05:06:04;98401.81;;;-4.45;100.00
5872;BME280;2962;51.312;7.378;2022-12-18T05:08:30;98380.22;;;-4.49;100.00
5872;BME280;2962;51.312;7.378;2022-12-18T05:11:06;98394.44;;;-4.38;100.00
5872;BME280;2962;51.312;7.378;2022-12-18T05:13:32;98378.97;;;-4.41;100.00
5872;BME280;2962;51.312;7.378;2022-12-18T05:15:58;98383.06;;;-4.33;100.00
5872;BME280;2962;51.312;7.378;2022-12-18T05:18:24;98365.84;;;-4.26;100.00
5872;BME280;2962;51.312;7.378;2022-12-18T05:20:51;98369.13;;;-4.19;100.00
5872;BME280;2962;51.312;7.378;2022-12-18T05:23:16;98365.44;;;-4.12;100.00
5872;BME280;2962;51.312;7.378;2022-12-18T05:25:42;98367.66;;;-4.04;100.00
5872;BME280;2962;51.312;7.378;2022-12-18T05:28:07;98372.25;;;-4.00;100.00
5872;BME280;2962;51.312;7.378;2022-12-18T05:30:33;98353.75;;;-4.11;100.00
5872;BME280;2962;51.312;7.378;2022-12-18T05:32:58;98352.56;;;-3.99;100.00
5872;BME280;2962;51.312;7.378;2022-12-18T05:35:24;98329.94;;;-3.96;100.00
5872;BME280;2962;51.312;7.378;2022-12-18T05:37:49;98361.06;;;-3.97;100.00
5872;BME280;2962;51.312;7.378;2022-12-18T05:40:14;98355.84;;;-3.86;100.00
5872;BME280;2962;51.312;7.378;2022-12-18T05:42:40;98358.47;;;-3.91;100.00
5872;BME280;2962;51.312;7.378;2022-12-18T05:45:05;98358.88;;;-4.05;100.00
5872;BME280;2962;51.312;7.378;2022-12-18T05:47:31;98358.38;;;-4.02;100.00
5872;BME280;2962;51.312;7.378;2022-12-18T05:49:56;98353.31;;;-4.03;100.00
5872;BME280;2962;51.312;7.378;2022-12-18T05:52:22;98350.53;;;-4.13;100.00
5872;BME280;2962;51.312;7.378;2022-12-18T05:54:47;98358.56;;;-4.08;100.00
5872;BME280;2962;51.312;7.378;2022-12-18T05:57:13;98382.06;;;-4.00;100.00
5872;BME280;2962;51.312;7.378;2022-12-18T05:59:38;98375.91;;;-4.06;100.00
5872;BME280;2962;51.312;7.378;2022-12-18T06:02:03;98365.41;;;-4.18;100.00
5872;BME280;2962;51.312;7.378;2022-12-18T06:04:29;98381.72;;;-4.09;100.00
5872;BME280;2962;51.312;7.378;2022-12-18T06:06:55;98371.97;;;-4.25;100.00
5872;BME280;2962;51.312;7.378;2022-12-18T06:09:21;98379.00;;;-4.14;100.00
5872;BME280;2962;51.312;7.378;2022-12-18T06:11:46;98369.13;;;-4.19;100.00
5872;BME280;2962;51.312;7.378;2022-12-18T06:14:11;98390.03;;;-4.27;100.00
5872;BME280;2962;51.312;7.378;2022-12-18T06:16:36;98386.69;;;-4.18;100.00
5872;BME280;2962;51.312;7.378;2022-12-18T06:19:04;98390.91;;;-4.22;100.00
5872;BME280;2962;51.312;7.378;2022-12-18T06:21:30;98403.00;;;-4.09;100.00
5872;BME280;2962;51.312;7.378;2022-12-18T06:23:56;98393.97;;;-4.08;100.00
5872;BME280;2962;51.312;7.378;2022-12-18T06:26:21;98415.63;;;-3.99;100.00
5872;BME280;2962;51.312;7.378;2022-12-18T06:28:47;98418.47;;;-4.06;100.00
5872;BME280;2962;51.312;7.378;2022-12-18T06:31:12;98423.31;;;-4.03;100.00
5872;BME280;2962;51.312;7.378;2022-12-18T06:33:38;98415.06;;;-4.01;100.00
5872;BME280;2962;51.312;7.378;2022-12-18T06:36:11;98400.97;;;-4.02;100.00
5872;BME280;2962;51.312;7.378;2022-12-18T06:38:40;98414.84;;;-4.00;100.00
5872;BME280;2962;51.312;7.378;2022-12-18T06:41:14;98408.38;;;-4.04;100.00
5872;BME280;2962;51.312;7.378;2022-12-18T06:43:40;98423.06;;;-4.01;100.00
5872;BME280;2962;51.312;7.378;2022-12-18T06:46:05;98406.84;;;-4.00;100.00
5872;BME280;2962;51.312;7.378;2022-12-18T06:48:31;98391.91;;;-4.01;100.00
5872;BME280;2962;51.312;7.378;2022-12-18T06:50:56;98400.16;;;-4.02;100.00
5872;BME280;2962;51.312;7.378;2022-12-18T06:53:22;98395.59;;;-4.07;100.00
5872;BME280;2962;51.312;7.378;2022-12-18T06:55:48;98400.84;;;-4.12;100.00
5872;BME280;2962;51.312;7.378;2022-12-18T06:58:13;98378.75;;;-4.12;100.00
5872;BME280;2962;51.312;7.378;2022-12-18T07:00:38;98389.22;;;-4.06;100.00
5872;BME280;2962;51.312;7.378;2022-12-18T07:03:04;98360.19;;;-4.07;100.00
5872;BME280;2962;51.312;7.378;2022-12-18T07:05:29;98395.16;;;-3.99;100.00
5872;BME280;2962;51.312;7.378;2022-12-18T07:07:54;98380.50;;;-3.96;100.00
5872;BME280;2962;51.312;7.378;2022-12-18T07:10:19;98364.19;;;-4.05;100.00
5872;BME280;2962;51.312;7.378;2022-12-18T07:12:45;98366.72;;;-3.93;100.00
5872;BME280;2962;51.312;7.378;2022-12-18T07:15:10;98362.13;;;-3.98;100.00
5872;BME280;2962;51.312;7.378;2022-12-18T07:17:36;98387.69;;;-3.97;100.00
5872;BME280;2962;51.312;7.378;2022-12-18T07:20:01;98326.69;;;-4.03;100.00
5872;BME280;2962;51.312;7.378;2022-12-18T07:22:26;98338.69;;;-4.01;100.00
5872;BME280;2962;51.312;7.378;2022-12-18T07:24:52;98353.97;;;-3.91;100.00
5872;BME280;2962;51.312;7.378;2022-12-18T07:27:17;98352.63;;;-3.88;100.00
5872;BME280;2962;51.312;7.378;2022-12-18T07:29:42;98366.00;;;-3.83;100.00
5872;BME280;2962;51.312;7.378;2022-12-18T07:32:08;98352.75;;;-3.78;100.00
5872;BME280;2962;51.312;7.378;2022-12-18T07:34:33;98336.38;;;-3.92;100.00
5872;BME280;2962;51.312;7.378;2022-12-18T07:36:58;98363.13;;;-3.77;100.00
5872;BME280;2962;51.312;7.378;2022-12-18T07:39:24;98357.66;;;-3.65;100.00
5872;BME280;2962;51.312;7.378;2022-12-18T07:41:49;98350.72;;;-3.66;100.00
5872;BME280;2962;51.312;7.378;2022-12-18T07:44:35;98353.50;;;-3.51;100.00
5872;BME280;2962;51.312;7.378;2022-12-18T07:47:00;98361.56;;;-3.46;100.00
5872;BME280;2962;51.312;7.378;2022-12-18T07:49:26;98329.59;;;-3.40;100.00
5872;BME280;2962;51.312;7.378;2022-12-18T07:51:54;98355.56;;;-3.26;100.00
5872;BME280;2962;51.312;7.378;2022-12-18T07:54:20;98358.75;;;-3.24;100.00
5872;BME280;2962;51.312;7.378;2022-12-18T07:56:45;98358.53;;;-3.17;100.00
5872;BME280;2962;51.312;7.378;2022-12-18T07:59:10;98354.59;;;-3.09;100.00
5872;BME280;2962;51.312;7.378;2022-12-18T08:01:35;98361.81;;;-3.05;100.00
5872;BME280;2962;51.312;7.378;2022-12-18T08:04:01;98361.91;;;-2.89;100.00
5872;BME280;2962;51.312;7.378;2022-12-18T08:06:26;98351.84;;;-2.77;100.00
5872;BME280;2962;51.312;7.378;2022-12-18T08:08:52;98356.16;;;-2.66;100.00
5872;BME280;2962;51.312;7.378;2022-12-18T08:11:18;98338.06;;;-2.59;100.00
5872;BME280;2962;51.312;7.378;2022-12-18T08:13:43;98329.03;;;-2.42;100.00
5872;BME280;2962;51.312;7.378;2022-12-18T08:16:09;98365.91;;;-2.34;100.00
5872;BME280;2962;51.312;7.378;2022-12-18T08:18:37;98358.16;;;-2.41;100.00
5872;BME280;2962;51.312;7.378;2022-12-18T08:21:14;98350.66;;;-2.44;100.00
5872;BME280;2962;51.312;7.378;2022-12-18T08:23:40;98348.56;;;-2.37;100.00
5872;BME280;2962;51.312;7.378;2022-12-18T08:26:05;98358.72;;;-2.24;100.00
5872;BME280;2962;51.312;7.378;2022-12-18T08:28:31;98345.97;;;-2.06;100.00
5872;BME280;2962;51.312;7.378;2022-12-18T08:30:56;98344.09;;;-2.01;100.00
5872;BME280;2962;51.312;7.378;2022-12-18T08:33:22;98308.31;;;-2.05;100.00
5872;BME280;2962;51.312;7.378;2022-12-18T08:35:47;98316.88;;;-1.92;100.00
5872;BME280;2962;51.312;7.378;2022-12-18T08:38:12;98336.63;;;-1.88;100.00
5872;BME280;2962;51.312;7.378;2022-12-18T08:40:37;98295.53;;;-1.87;100.00
5872;BME280;2962;51.312;7.378;2022-12-18T08:43:03;98312.09;;;-1.80;100.00
5872;BME280;2962;51.312;7.378;2022-12-18T08:45:46;98288.06;;;-1.80;100.00
5872;BME280;2962;51.312;7.378;2022-12-18T08:48:12;98303.00;;;-1.69;100.00
5872;BME280;2962;51.312;7.378;2022-12-18T08:50:37;98310.50;;;-1.61;100.00
5872;BME280;2962;51.312;7.378;2022-12-18T08:53:03;98296.84;;;-1.59;100.00
5872;BME280;2962;51.312;7.378;2022-12-18T08:55:28;98338.25;;;-1.67;100.00
5872;BME280;2962;51.312;7.378;2022-12-18T08:57:54;98294.44;;;-1.66;100.00
5872;BME280;2962;51.312;7.378;2022-12-18T09:00:19;98317.97;;;-1.48;100.00
5872;BME280;2962;51.312;7.378;2022-12-18T09:02:45;98298.44;;;-1.38;100.00
5872;BME280;2962;51.312;7.378;2022-12-18T09:05:10;98301.38;;;-1.34;100.00
5872;BME280;2962;51.312;7.378;2022-12-18T09:07:35;98304.03;;;-1.19;100.00
5872;BME280;2962;51.312;7.378;2022-12-18T09:10:00;98298.44;;;-1.23;100.00
5872;BME280;2962;51.312;7.378;2022-12-18T09:12:26;98305.38;;;-1.21;100.00
5872;BME280;2962;51.312;7.378;2022-12-18T09:14:51;98299.47;;;-1.13;100.00
5872;BME280;2962;51.312;7.378;2022-12-18T09:17:17;98317.38;;;-1.04;100.00
5872;BME280;2962;51.312;7.378;2022-12-18T09:19:42;98300.25;;;-1.03;100.00
5872;BME280;2962;51.312;7.378;2022-12-18T09:22:08;98307.72;;;-1.05;100.00
5872;BME280;2962;51.312;7.378;2022-12-18T09:24:34;98300.00;;;-1.06;100.00
5872;BME280;2962;51.312;7.378;2022-12-18T09:27:00;98266.59;;;-1.14;100.00
5872;BME280;2962;51.312;7.378;2022-12-18T09:29:25;98276.47;;;-1.09;100.00
5872;BME280;2962;51.312;7.378;2022-12-18T09:31:50;98274.59;;;-1.04;100.00
5872;BME280;2962;51.312;7.378;2022-12-18T09:34:16;98341.94;;;-0.96;100.00
5872;BME280;2962;51.312;7.378;2022-12-18T09:36:41;98267.56;;;-0.89;100.00
5872;BME280;2962;51.312;7.378;2022-12-18T09:39:07;98284.66;;;-0.80;100.00
5872;BME280;2962;51.312;7.378;2022-12-18T09:41:43;98277.09;;;-0.63;100.00
5872;BME280;2962;51.312;7.378;2022-12-18T09:46:47;98257.53;;;-0.14;100.00
5872;BME280;2962;51.312;7.378;2022-12-18T09:49:16;98257.34;;;-0.28;100.00
5872;BME280;2962;51.312;7.378;2022-12-18T09:51:47;98250.94;;;-0.32;100.00
5872;BME280;2962;51.312;7.378;2022-12-18T09:54:40;98278.59;;;-0.41;100.00
5872;BME280;2962;51.312;7.378;2022-12-18T09:57:12;98277.22;;;-0.39;100.00
5872;BME280;2962;51.312;7.378;2022-12-18T09:59:38;98273.75;;;-0.34;100.00
5872;BME280;2962;51.312;7.378;2022-12-18T10:02:15;98266.22;;;-0.32;100.00
5872;BME280;2962;51.312;7.378;2022-12-18T10:04:42;98292.75;;;-0.36;100.00
5872;BME280;2962;51.312;7.378;2022-12-18T10:08:10;98291.69;;;-0.40;100.00
5872;BME280;2962;51.312;7.378;2022-12-18T10:10:42;98279.91;;;-0.34;100.00
5872;BME280;2962;51.312;7.378;2022-12-18T10:13:30;98286.31;;;-0.35;100.00
5872;BME280;2962;51.312;7.378;2022-12-18T10:16:11;98249.13;;;-0.36;100.00
5872;BME280;2962;51.312;7.378;2022-12-18T10:18:43;98290.38;;;-0.42;100.00
5872;BME280;2962;51.312;7.378;2022-12-18T10:21:17;98272.13;;;-0.35;100.00
5872;BME280;2962;51.312;7.378;2022-12-18T10:24:03;98251.25;;;-0.33;100.00
5872;BME280;2962;51.312;7.378;2022-12-18T10:26:33;98216.44;;;-0.33;100.00
5872;BME280;2962;51.312;7.378;2022-12-18T10:28:58;98219.38;;;-0.35;100.00
5872;BME280;2962;51.312;7.378;2022-12-18T10:31:24;98235.66;;;-0.26;100.00
5872;BME280;2962;51.312;7.378;2022-12-18T10:33:51;98227.34;;;-0.25;100.00
5872;BME280;2962;51.312;7.378;2022-12-18T10:36:16;98197.38;;;-0.27;100.00
5872;BME280;2962;51.312;7.378;2022-12-18T10:38:42;98211.81;;;-0.22;100.00
5872;BME280;2962;51.312;7.378;2022-12-18T10:43:47;98192.16;;;-0.08;100.00
5872;BME280;2962;51.312;7.378;2022-12-18T10:46:18;98213.78;;;0.01;100.00
5872;BME280;2962;51.312;7.378;2022-12-18T10:51:25;98207.25;;;0.12;100.00
5872;BME280;2962;51.312;7.378;2022-12-18T10:54:01;98212.84;;;0.16;100.00
5872;BME280;2962;51.312;7.378;2022-12-18T10:56:28;98200.19;;;0.21;100.00
5872;BME280;2962;51.312;7.378;2022-12-18T10:59:00;98213.31;;;0.23;100.00
5872;BME280;2962;51.312;7.378;2022-12-18T11:01:27;98213.31;;;0.23;100.00
5872;BME280;2962;51.312;7.378;2022-12-18T11:06:23;98215.44;;;0.26;100.00
5872;BME280;2962;51.312;7.378;2022-12-18T11:09:17;98199.19;;;0.41;100.00
5872;BME280;2962;51.312;7.378;2022-12-18T11:11:49;98223.53;;;0.50;100.00
5872;BME280;2962;51.312;7.378;2022-12-18T11:17:18;98220.31;;;0.48;100.00
5872;BME280;2962;51.312;7.378;2022-12-18T11:19:44;98208.75;;;0.53;100.00
5872;BME280;2962;51.312;7.378;2022-12-18T11:22:21;98203.38;;;0.53;100.00
5872;BME280;2962;51.312;7.378;2022-12-18T11:25:17;98203.34;;;0.58;100.00
5872;BME280;2962;51.312;7.378;2022-12-18T11:27:50;98179.38;;;0.42;100.00
5872;BME280;2962;51.312;7.378;2022-12-18T11:30:31;98193.50;;;0.48;100.00
5872;BME280;2962;51.312;7.378;2022-12-18T11:33:19;98172.84;;;0.48;100.00
5872;BME280;2962;51.312;7.378;2022-12-18T11:35:52;98177.59;;;0.57;100.00
5872;BME280;2962;51.312;7.378;2022-12-18T11:38:27;98178.06;;;0.64;100.00
5872;BME280;2962;51.312;7.378;2022-12-18T11:41:00;98165.44;;;0.64;100.00
5872;BME280;2962;51.312;7.378;2022-12-18T11:43:32;98160.94;;;0.60;100.00
5872;BME280;2962;51.312;7.378;2022-12-18T11:46:09;98176.41;;;0.68;100.00
5872;BME280;2962;51.312;7.378;2022-12-18T11:48:46;98167.00;;;0.70;100.00
5872;BME280;2962;51.312;7.378;2022-12-18T11:51:20;98158.19;;;0.65;100.00
5872;BME280;2962;51.312;7.378;2022-12-18T11:53:47;98151.13;;;0.74;100.00
5872;BME280;2962;51.312;7.378;2022-12-18T11:56:30;98152.19;;;0.73;100.00
5872;BME280;2962;51.312;7.378;2022-12-18T12:05:01;98112.59;;;0.65;100.00
5872;BME280;2962;51.312;7.378;2022-12-18T12:07:53;98131.03;;;0.71;100.00
5872;BME280;2962;51.312;7.378;2022-12-18T12:10:36;98114.44;;;0.69;100.00
5872;BME280;2962;51.312;7.378;2022-12-18T12:16:10;98151.25;;;0.64;100.00
5872;BME280;2962;51.312;7.378;2022-12-18T12:21:39;98145.94;;;0.59;100.00
5872;BME280;2962;51.312;7.378;2022-12-18T12:24:15;98137.38;;;0.57;100.00
5872;BME280;2962;51.312;7.378;2022-12-18T12:29:54;98138.53;;;0.51;100.00
5872;BME280;2962;51.312;7.378;2022-12-18T12:32:39;98124.13;;;0.41;100.00
5872;BME280;2962;51.312;7.378;2022-12-18T12:35:31;98129.72;;;0.45;100.00
5872;BME280;2962;51.312;7.378;2022-12-18T12:38:11;98086.44;;;0.33;100.00
5872;BME280;2962;51.312;7.378;2022-12-18T12:40:44;98108.78;;;0.23;100.00
5872;BME280;2962;51.312;7.378;2022-12-18T12:43:27;98128.94;;;0.20;100.00
5872;BME280;2962;51.312;7.378;2022-12-18T12:46:08;98124.13;;;0.17;100.00
5872;BME280;2962;51.312;7.378;2022-12-18T12:48:36;98119.91;;;0.11;100.00
5872;BME280;2962;51.312;7.378;2022-12-18T12:51:11;98094.19;;;0.10;100.00
5872;BME280;2962;51.312;7.378;2022-12-18T12:53:37;98103.09;;;0.06;100.00
5872;BME280;2962;51.312;7.378;2022-12-18T12:56:05;98101.53;;;-0.01;100.00
5872;BME280;2962;51.312;7.378;2022-12-18T12:59:05;98077.47;;;-0.06;100.00
5872;BME280;2962;51.312;7.378;2022-12-18T13:01:36;98127.56;;;-0.06;100.00
5872;BME280;2962;51.312;7.378;2022-12-18T13:04:27;98117.19;;;-0.13;100.00
5872;BME280;2962;51.312;7.378;2022-12-18T13:12:58;98082.81;;;-0.30;100.00
5872;BME280;2962;51.312;7.378;2022-12-18T13:15:30;98091.22;;;-0.46;100.00
5872;BME280;2962;51.312;7.378;2022-12-18T13:18:04;98101.75;;;-0.55;100.00
5872;BME280;2962;51.312;7.378;2022-12-18T13:20:41;98103.19;;;-0.68;100.00
5872;BME280;2962;51.312;7.378;2022-12-18T13:23:29;98093.34;;;-0.78;100.00
5872;BME280;2962;51.312;7.378;2022-12-18T13:31:02;98092.09;;;-0.90;100.00
5872;BME280;2962;51.312;7.378;2022-12-18T13:36:01;98100.16;;;-0.95;100.00
5872;BME280;2962;51.312;7.378;2022-12-18T13:38:36;98126.91;;;-1.01;100.00
5872;BME280;2962;51.312;7.378;2022-12-18T13:41:04;98137.63;;;-1.01;100.00
5872;BME280;2962;51.312;7.378;2022-12-18T13:43:55;98103.47;;;-1.14;100.00
5872;BME280;2962;51.312;7.378;2022-12-18T13:46:29;98120.59;;;-1.15;100.00
5872;BME280;2962;51.312;7.378;2022-12-18T13:49:22;98107.78;;;-1.18;100.00
5872;BME280;2962;51.312;7.378;2022-12-18T13:51:50;98104.56;;;-1.20;100.00
5872;BME280;2962;51.312;7.378;2022-12-18T13:54:30;98113.13;;;-1.23;100.00
5872;BME280;2962;51.312;7.378;2022-12-18T13:56:57;98095.53;;;-1.29;100.00
5872;BME280;2962;51.312;7.378;2022-12-18T13:59:25;98109.44;;;-1.32;100.00
5872;BME280;2962;51.312;7.378;2022-12-18T14:01:56;98106.25;;;-1.34;100.00
5872;BME280;2962;51.312;7.378;2022-12-18T14:04:26;98114.81;;;-1.37;100.00
5872;BME280;2962;51.312;7.378;2022-12-18T14:06:56;98092.91;;;-1.39;100.00
5872;BME280;2962;51.312;7.378;2022-12-18T14:09:26;98082.53;;;-1.46;100.00
5872;BME280;2962;51.312;7.378;2022-12-18T14:11:52;98085.84;;;-1.15;100.00
5872;BME280;2962;51.312;7.378;2022-12-18T14:14:41;98089.44;;;-1.40;100.00
5872;BME280;2962;51.312;7.378;2022-12-18T14:17:11;98067.84;;;-1.54;100.00